Aviation Digital Data Service (ADDS)

Output produced by METARs form (1157 UTC 26 March 2019)
found at http://www.aviationweather.gov/metar/data/
 
LKCV 261100Z 27013KT 9999 OVC044 07/00 Q1024 NOSIG RMK BLU BLU
TAF LKCV 260500Z 2606/2706 30012KT 9999 BKN035 
     TEMPO 2607/2622 31014G24KT 
     TEMPO 2612/2620 32018G34KT 
     TEMPO 2618/2703 6000 RA BKN020 BKN030
       
LKKV 261130Z 27013KT 9999 BKN021 03/M01 Q1025
TAF LKKV 261100Z 2612/2718 28008KT 9999 BKN023 
     TEMPO 2612/2618 31010G20KT 9999 BKN030 
     TEMPO 2618/2706 2500 SHRASN SCT013 BKN020 
     PROB40 
     TEMPO 2617/2709 1200 SHSN BKN010
       
LKKB 261100Z 28012KT 9999 BKN039 BKN044 07/M03 Q1024 NOSIG
TAF LKKB 260500Z 2606/2706 28006KT 9999 BKN030 
     BECMG 2608/2610 30014G24KT BKN040 
     BECMG 2618/2620 30006KT SCT020 BKN045 
     PROB40 
     TEMPO 2621/2702 7000 SHRA BKN018 OVC030
       
LKKU 261100Z 32009KT 9999 BKN045 08/M02 Q1023
LKLN 261100Z AUTO 28009KT 240V340 9999 SCT035 OVC040 06/M02 Q1027
LKMT 261130Z 25010KT 220V290 CAVOK 10/M03 Q1021 NOSIG
TAF LKMT 261100Z 2612/2718 29008KT 9999 SCT020 BKN040 
     TEMPO 2615/2701 29014G26KT 7000 SHRASN BKN014 
     BECMG 2701/2703 04003KT 5000 BR BKN016 
     PROB30 
     TEMPO 2703/2707 3500 BR BKN009 
     BECMG 2709/2712 9999 SCT040
       
LKNA 261100Z 30017KT 9999 SCT027 BKN037 04/M02 Q1023 NOSIG RMK BLU BLU
TAF AMD LKNA 260500Z 2606/2706 31012KT 9999 BKN030 
     TEMPO 2606/2608 RA BKN012 
     TEMPO 2610/2703 32020G34KT 
     PROB40 
     TEMPO 2617/2704 6000 RA BKN015
       
LKPD 261100Z 28012KT 9999 FEW028 OVC039 07/M02 Q1024 NOSIG RMK BLU BLU
TAF LKPD 260500Z 2606/2706 28008KT 9999 SCT040 
     BECMG 2607/2609 28014G24KT BKN030 
     TEMPO 2612/2618 29020G32KT 
     PROB40 
     TEMPO 2619/2700 7000 RA BKN022 
     BECMG 2623/2701 30007KT
       
LKPR 261130Z 28016KT 9999 BKN042 06/M02 Q1025 NOSIG
TAF LKPR 261100Z 2612/2718 30010KT 9999 SCT020 SCT040 
     TEMPO 2612/2618 31014G30KT 9999 SCT015 BKN036 
     BECMG 2618/2621 SCT013 BKN020 
     TEMPO 2621/2706 SHRA BKN013 
     BECMG 2709/2711 25005KT BKN030
       
LKTB 261130Z 29013KT 9999 FEW042 BKN049 07/M02 Q1024 NOSIG
TAF LKTB 261100Z 2612/2718 33010KT 9999 SCT040 
     TEMPO 2612/2618 31014G26KT 9999 BKN040 
     BECMG 2620/2623 BKN017 
     PROB30 
     TEMPO 2701/2706 4000 BR BKN011 
     BECMG 2708/2710 9999 BKN040
       
LKVO 261100Z 29018KT 9999 OVC042 07/M02 Q1025